sensor_id;sensor_type;location;lat;lon;timestamp;P1;durP1;ratioP1;P2;durP2;ratioP2
19111;SDS011;9688;51.906;8.376;2024-01-30T00:02:32;21.00;;;11.20;;
19111;SDS011;9688;51.906;8.376;2024-01-30T00:05:17;18.10;;;10.53;;
19111;SDS011;9688;51.906;8.376;2024-01-30T00:08:05;19.77;;;10.37;;
19111;SDS011;9688;51.906;8.376;2024-01-30T00:14:09;17.87;;;10.77;;
19111;SDS011;9688;51.906;8.376;2024-01-30T00:16:56;19.40;;;10.53;;
19111;SDS011;9688;51.906;8.376;2024-01-30T00:19:42;15.37;;;10.27;;
19111;SDS011;9688;51.906;8.376;2024-01-30T00:22:27;16.83;;;10.63;;
19111;SDS011;9688;51.906;8.376;2024-01-30T00:29:14;18.73;;;10.70;;
19111;SDS011;9688;51.906;8.376;2024-01-30T00:32:03;17.00;;;10.07;;
19111;SDS011;9688;51.906;8.376;2024-01-30T00:34:49;15.73;;;9.80;;
19111;SDS011;9688;51.906;8.376;2024-01-30T00:37:35;14.27;;;9.43;;
19111;SDS011;9688;51.906;8.376;2024-01-30T00:40:21;17.30;;;9.90;;
19111;SDS011;9688;51.906;8.376;2024-01-30T00:43:06;18.77;;;10.00;;
19111;SDS011;9688;51.906;8.376;2024-01-30T00:45:53;19.77;;;9.97;;
19111;SDS011;9688;51.906;8.376;2024-01-30T00:48:38;14.97;;;10.07;;
19111;SDS011;9688;51.906;8.376;2024-01-30T00:51:23;18.37;;;10.33;;
19111;SDS011;9688;51.906;8.376;2024-01-30T00:54:09;12.80;;;9.57;;
19111;SDS011;9688;51.906;8.376;2024-01-30T00:56:54;14.17;;;9.67;;
19111;SDS011;9688;51.906;8.376;2024-01-30T00:59:40;17.30;;;9.73;;
19111;SDS011;9688;51.906;8.376;2024-01-30T01:02:27;12.83;;;9.93;;
19111;SDS011;9688;51.906;8.376;2024-01-30T01:05:12;22.30;;;10.83;;
19111;SDS011;9688;51.906;8.376;2024-01-30T01:07:57;19.43;;;10.30;;
19111;SDS011;9688;51.906;8.376;2024-01-30T01:10:43;19.03;;;10.43;;
19111;SDS011;9688;51.906;8.376;2024-01-30T01:13:28;16.40;;;9.60;;
19111;SDS011;9688;51.906;8.376;2024-01-30T01:16:13;17.17;;;9.90;;
19111;SDS011;9688;51.906;8.376;2024-01-30T01:19:00;15.20;;;9.43;;
19111;SDS011;9688;51.906;8.376;2024-01-30T01:21:45;19.17;;;10.27;;
19111;SDS011;9688;51.906;8.376;2024-01-30T01:24:31;15.47;;;9.50;;
19111;SDS011;9688;51.906;8.376;2024-01-30T01:27:16;14.93;;;9.63;;
19111;SDS011;9688;51.906;8.376;2024-01-30T01:30:02;19.43;;;10.23;;
19111;SDS011;9688;51.906;8.376;2024-01-30T01:32:49;16.63;;;9.50;;
19111;SDS011;9688;51.906;8.376;2024-01-30T01:35:40;14.80;;;10.37;;
19111;SDS011;9688;51.906;8.376;2024-01-30T01:38:25;17.60;;;10.10;;
19111;SDS011;9688;51.906;8.376;2024-01-30T01:41:10;15.30;;;9.33;;
19111;SDS011;9688;51.906;8.376;2024-01-30T01:43:55;16.17;;;10.07;;
19111;SDS011;9688;51.906;8.376;2024-01-30T01:46:40;19.17;;;9.80;;
19111;SDS011;9688;51.906;8.376;2024-01-30T01:49:26;14.37;;;10.03;;
19111;SDS011;9688;51.906;8.376;2024-01-30T01:52:14;17.73;;;10.07;;
19111;SDS011;9688;51.906;8.376;2024-01-30T01:54:59;15.67;;;9.80;;
19111;SDS011;9688;51.906;8.376;2024-01-30T01:57:45;18.73;;;10.40;;
19111;SDS011;9688;51.906;8.376;2024-01-30T02:00:30;15.70;;;9.03;;
19111;SDS011;9688;51.906;8.376;2024-01-30T02:03:16;15.70;;;10.17;;
19111;SDS011;9688;51.906;8.376;2024-01-30T02:06:05;17.17;;;11.07;;
19111;SDS011;9688;51.906;8.376;2024-01-30T02:08:52;14.80;;;9.70;;
19111;SDS011;9688;51.906;8.376;2024-01-30T02:11:37;16.30;;;10.13;;
19111;SDS011;9688;51.906;8.376;2024-01-30T02:14:24;16.83;;;10.03;;
19111;SDS011;9688;51.906;8.376;2024-01-30T02:17:10;16.83;;;10.27;;
19111;SDS011;9688;51.906;8.376;2024-01-30T02:19:55;13.30;;;9.73;;
19111;SDS011;9688;51.906;8.376;2024-01-30T02:22:41;15.23;;;10.43;;
19111;SDS011;9688;51.906;8.376;2024-01-30T02:25:31;18.10;;;10.47;;
19111;SDS011;9688;51.906;8.376;2024-01-30T02:28:18;16.53;;;10.00;;
19111;SDS011;9688;51.906;8.376;2024-01-30T02:31:04;17.20;;;10.13;;
19111;SDS011;9688;51.906;8.376;2024-01-30T02:33:50;15.67;;;10.30;;
19111;SDS011;9688;51.906;8.376;2024-01-30T02:36:35;18.60;;;10.10;;
19111;SDS011;9688;51.906;8.376;2024-01-30T02:39:22;16.00;;;9.97;;
19111;SDS011;9688;51.906;8.376;2024-01-30T02:42:08;16.53;;;10.80;;
19111;SDS011;9688;51.906;8.376;2024-01-30T02:44:53;16.57;;;10.37;;
19111;SDS011;9688;51.906;8.376;2024-01-30T02:47:38;16.83;;;11.40;;
19111;SDS011;9688;51.906;8.376;2024-01-30T02:50:24;22.03;;;10.23;;
19111;SDS011;9688;51.906;8.376;2024-01-30T02:53:09;17.63;;;10.30;;
19111;SDS011;9688;51.906;8.376;2024-01-30T02:55:56;17.67;;;10.47;;
19111;SDS011;9688;51.906;8.376;2024-01-30T02:58:41;15.77;;;10.67;;
19111;SDS011;9688;51.906;8.376;2024-01-30T03:01:27;14.33;;;10.10;;
19111;SDS011;9688;51.906;8.376;2024-01-30T03:04:12;18.23;;;11.10;;
19111;SDS011;9688;51.906;8.376;2024-01-30T03:06:58;20.30;;;10.23;;
19111;SDS011;9688;51.906;8.376;2024-01-30T03:09:43;15.67;;;10.27;;
19111;SDS011;9688;51.906;8.376;2024-01-30T03:12:30;15.40;;;10.07;;
19111;SDS011;9688;51.906;8.376;2024-01-30T03:15:15;15.20;;;10.07;;
19111;SDS011;9688;51.906;8.376;2024-01-30T03:18:01;23.17;;;11.80;;
19111;SDS011;9688;51.906;8.376;2024-01-30T03:20:47;18.50;;;10.73;;
19111;SDS011;9688;51.906;8.376;2024-01-30T03:23:32;14.63;;;10.77;;
19111;SDS011;9688;51.906;8.376;2024-01-30T03:26:18;14.93;;;9.90;;
19111;SDS011;9688;51.906;8.376;2024-01-30T03:29:04;16.00;;;10.53;;
19111;SDS011;9688;51.906;8.376;2024-01-30T03:31:50;15.60;;;10.20;;
19111;SDS011;9688;51.906;8.376;2024-01-30T03:34:35;17.83;;;10.13;;
19111;SDS011;9688;51.906;8.376;2024-01-30T03:37:20;16.97;;;10.63;;
19111;SDS011;9688;51.906;8.376;2024-01-30T03:40:06;15.83;;;9.97;;
19111;SDS011;9688;51.906;8.376;2024-01-30T03:42:52;17.13;;;10.23;;
19111;SDS011;9688;51.906;8.376;2024-01-30T03:45:39;16.47;;;10.33;;
19111;SDS011;9688;51.906;8.376;2024-01-30T03:48:24;15.00;;;10.13;;
19111;SDS011;9688;51.906;8.376;2024-01-30T03:51:09;17.53;;;9.83;;
19111;SDS011;9688;51.906;8.376;2024-01-30T03:53:58;15.03;;;10.03;;
19111;SDS011;9688;51.906;8.376;2024-01-30T03:56:43;18.67;;;10.43;;
19111;SDS011;9688;51.906;8.376;2024-01-30T03:59:29;15.87;;;10.03;;
19111;SDS011;9688;51.906;8.376;2024-01-30T04:02:15;18.07;;;11.10;;
19111;SDS011;9688;51.906;8.376;2024-01-30T04:05:02;17.83;;;9.60;;
19111;SDS011;9688;51.906;8.376;2024-01-30T04:07:47;14.33;;;9.47;;
19111;SDS011;9688;51.906;8.376;2024-01-30T04:10:32;19.53;;;11.70;;
19111;SDS011;9688;51.906;8.376;2024-01-30T04:13:18;15.27;;;10.27;;
19111;SDS011;9688;51.906;8.376;2024-01-30T04:16:03;14.07;;;10.67;;
19111;SDS011;9688;51.906;8.376;2024-01-30T04:18:51;17.17;;;10.27;;
19111;SDS011;9688;51.906;8.376;2024-01-30T04:21:36;18.57;;;10.77;;
19111;SDS011;9688;51.906;8.376;2024-01-30T04:24:21;17.03;;;10.40;;
19111;SDS011;9688;51.906;8.376;2024-01-30T04:27:06;15.57;;;10.00;;
19111;SDS011;9688;51.906;8.376;2024-01-30T04:29:52;15.77;;;11.00;;
19111;SDS011;9688;51.906;8.376;2024-01-30T04:32:37;17.10;;;10.90;;
19111;SDS011;9688;51.906;8.376;2024-01-30T04:35:24;14.77;;;9.70;;
19111;SDS011;9688;51.906;8.376;2024-01-30T04:38:09;16.77;;;10.77;;
19111;SDS011;9688;51.906;8.376;2024-01-30T04:40:55;16.90;;;10.40;;
19111;SDS011;9688;51.906;8.376;2024-01-30T04:43:40;16.33;;;10.50;;
19111;SDS011;9688;51.906;8.376;2024-01-30T04:46:26;20.13;;;11.60;;
19111;SDS011;9688;51.906;8.376;2024-01-30T04:49:11;18.33;;;11.03;;
19111;SDS011;9688;51.906;8.376;2024-01-30T04:51:58;15.37;;;10.30;;
19111;SDS011;9688;51.906;8.376;2024-01-30T04:54:43;15.03;;;10.07;;
19111;SDS011;9688;51.906;8.376;2024-01-30T04:57:28;15.77;;;10.57;;
19111;SDS011;9688;51.906;8.376;2024-01-30T05:00:14;14.83;;;10.03;;
19111;SDS011;9688;51.906;8.376;2024-01-30T05:03:00;15.43;;;10.20;;
19111;SDS011;9688;51.906;8.376;2024-01-30T05:05:45;15.60;;;10.70;;
19111;SDS011;9688;51.906;8.376;2024-01-30T05:08:32;16.50;;;10.43;;
19111;SDS011;9688;51.906;8.376;2024-01-30T05:11:20;17.10;;;10.43;;
19111;SDS011;9688;51.906;8.376;2024-01-30T05:14:05;16.07;;;10.53;;
19111;SDS011;9688;51.906;8.376;2024-01-30T05:16:51;16.50;;;10.47;;
19111;SDS011;9688;51.906;8.376;2024-01-30T05:19:36;18.10;;;9.67;;
19111;SDS011;9688;51.906;8.376;2024-01-30T05:22:21;19.33;;;10.57;;
19111;SDS011;9688;51.906;8.376;2024-01-30T05:25:08;16.63;;;10.40;;
19111;SDS011;9688;51.906;8.376;2024-01-30T05:27:53;17.43;;;10.57;;
19111;SDS011;9688;51.906;8.376;2024-01-30T05:30:39;17.43;;;10.13;;
19111;SDS011;9688;51.906;8.376;2024-01-30T05:33:24;16.67;;;9.97;;
19111;SDS011;9688;51.906;8.376;2024-01-30T05:36:11;15.67;;;10.20;;
19111;SDS011;9688;51.906;8.376;2024-01-30T05:38:57;16.80;;;10.37;;
19111;SDS011;9688;51.906;8.376;2024-01-30T05:41:43;18.43;;;10.73;;
19111;SDS011;9688;51.906;8.376;2024-01-30T05:44:29;15.10;;;10.20;;
19111;SDS011;9688;51.906;8.376;2024-01-30T05:47:14;17.27;;;10.77;;
19111;SDS011;9688;51.906;8.376;2024-01-30T05:50:00;18.70;;;10.50;;
19111;SDS011;9688;51.906;8.376;2024-01-30T05:52:45;19.63;;;11.03;;
19111;SDS011;9688;51.906;8.376;2024-01-30T05:55:31;16.43;;;9.93;;
19111;SDS011;9688;51.906;8.376;2024-01-30T05:58:17;15.50;;;10.63;;
19111;SDS011;9688;51.906;8.376;2024-01-30T06:01:03;20.60;;;10.43;;
19111;SDS011;9688;51.906;8.376;2024-01-30T06:03:52;18.67;;;10.60;;
19111;SDS011;9688;51.906;8.376;2024-01-30T06:06:37;18.80;;;10.43;;
19111;SDS011;9688;51.906;8.376;2024-01-30T06:09:23;18.50;;;10.20;;
19111;SDS011;9688;51.906;8.376;2024-01-30T06:12:08;20.23;;;10.73;;
19111;SDS011;9688;51.906;8.376;2024-01-30T06:14:56;16.13;;;11.10;;
19111;SDS011;9688;51.906;8.376;2024-01-30T06:17:42;16.07;;;10.63;;
19111;SDS011;9688;51.906;8.376;2024-01-30T06:20:27;17.37;;;10.10;;
19111;SDS011;9688;51.906;8.376;2024-01-30T06:23:12;18.47;;;10.33;;
19111;SDS011;9688;51.906;8.376;2024-01-30T06:25:58;21.77;;;11.40;;
19111;SDS011;9688;51.906;8.376;2024-01-30T06:28:43;24.30;;;13.77;;
19111;SDS011;9688;51.906;8.376;2024-01-30T06:31:31;17.37;;;11.07;;
19111;SDS011;9688;51.906;8.376;2024-01-30T06:34:16;20.93;;;10.77;;
19111;SDS011;9688;51.906;8.376;2024-01-30T06:37:01;19.33;;;11.00;;
19111;SDS011;9688;51.906;8.376;2024-01-30T06:39:46;24.67;;;11.03;;
19111;SDS011;9688;51.906;8.376;2024-01-30T06:42:32;16.17;;;10.67;;
19111;SDS011;9688;51.906;8.376;2024-01-30T06:45:17;19.47;;;10.63;;
19111;SDS011;9688;51.906;8.376;2024-01-30T06:48:05;16.37;;;10.47;;
19111;SDS011;9688;51.906;8.376;2024-01-30T06:50:52;15.50;;;10.17;;
19111;SDS011;9688;51.906;8.376;2024-01-30T06:53:38;19.43;;;10.60;;
19111;SDS011;9688;51.906;8.376;2024-01-30T06:56:24;18.80;;;10.80;;
19111;SDS011;9688;51.906;8.376;2024-01-30T06:59:09;18.03;;;10.73;;
19111;SDS011;9688;51.906;8.376;2024-01-30T07:01:54;15.63;;;11.20;;
19111;SDS011;9688;51.906;8.376;2024-01-30T07:04:41;19.60;;;10.80;;
19111;SDS011;9688;51.906;8.376;2024-01-30T07:07:27;15.37;;;10.27;;
19111;SDS011;9688;51.906;8.376;2024-01-30T07:10:13;21.37;;;11.07;;
19111;SDS011;9688;51.906;8.376;2024-01-30T07:12:59;17.23;;;10.20;;
19111;SDS011;9688;51.906;8.376;2024-01-30T07:15:45;16.03;;;10.27;;
19111;SDS011;9688;51.906;8.376;2024-01-30T07:18:30;18.67;;;10.07;;
19111;SDS011;9688;51.906;8.376;2024-01-30T07:21:17;14.40;;;9.90;;
19111;SDS011;9688;51.906;8.376;2024-01-30T07:24:02;14.37;;;9.87;;
19111;SDS011;9688;51.906;8.376;2024-01-30T07:26:48;16.00;;;10.67;;
19111;SDS011;9688;51.906;8.376;2024-01-30T07:29:33;16.27;;;9.77;;
19111;SDS011;9688;51.906;8.376;2024-01-30T07:32:19;22.03;;;9.97;;
19111;SDS011;9688;51.906;8.376;2024-01-30T07:35:06;17.80;;;10.43;;
19111;SDS011;9688;51.906;8.376;2024-01-30T07:37:53;19.57;;;11.00;;
19111;SDS011;9688;51.906;8.376;2024-01-30T07:40:38;17.60;;;10.90;;
19111;SDS011;9688;51.906;8.376;2024-01-30T07:43:24;20.13;;;10.57;;
19111;SDS011;9688;51.906;8.376;2024-01-30T07:49:46;14.90;;;9.80;;
19111;SDS011;9688;51.906;8.376;2024-01-30T07:52:32;16.60;;;9.83;;
19111;SDS011;9688;51.906;8.376;2024-01-30T07:55:19;14.30;;;9.47;;
19111;SDS011;9688;51.906;8.376;2024-01-30T07:58:08;17.93;;;11.07;;
19111;SDS011;9688;51.906;8.376;2024-01-30T08:00:54;15.07;;;9.83;;
19111;SDS011;9688;51.906;8.376;2024-01-30T08:03:42;14.43;;;10.77;;
19111;SDS011;9688;51.906;8.376;2024-01-30T08:06:27;20.07;;;9.60;;
19111;SDS011;9688;51.906;8.376;2024-01-30T08:09:13;18.30;;;10.93;;
19111;SDS011;9688;51.906;8.376;2024-01-30T08:12:01;17.20;;;9.33;;
19111;SDS011;9688;51.906;8.376;2024-01-30T08:14:46;18.83;;;9.93;;
19111;SDS011;9688;51.906;8.376;2024-01-30T08:17:32;14.83;;;9.20;;
19111;SDS011;9688;51.906;8.376;2024-01-30T08:20:18;15.43;;;9.63;;
19111;SDS011;9688;51.906;8.376;2024-01-30T08:23:04;14.60;;;9.90;;
19111;SDS011;9688;51.906;8.376;2024-01-30T08:25:50;14.00;;;9.63;;
19111;SDS011;9688;51.906;8.376;2024-01-30T08:28:37;15.47;;;9.27;;
19111;SDS011;9688;51.906;8.376;2024-01-30T08:31:22;15.00;;;8.97;;
19111;SDS011;9688;51.906;8.376;2024-01-30T08:34:08;17.80;;;8.70;;
19111;SDS011;9688;51.906;8.376;2024-01-30T08:36:54;11.40;;;7.87;;
19111;SDS011;9688;51.906;8.376;2024-01-30T08:39:40;16.97;;;9.00;;
19111;SDS011;9688;51.906;8.376;2024-01-30T08:42:26;15.67;;;9.20;;
19111;SDS011;9688;51.906;8.376;2024-01-30T08:45:13;12.40;;;9.07;;
19111;SDS011;9688;51.906;8.376;2024-01-30T08:47:59;12.63;;;9.23;;
19111;SDS011;9688;51.906;8.376;2024-01-30T08:50:45;12.77;;;8.63;;
19111;SDS011;9688;51.906;8.376;2024-01-30T08:53:31;12.83;;;8.67;;
19111;SDS011;9688;51.906;8.376;2024-01-30T08:56:16;14.83;;;9.23;;
19111;SDS011;9688;51.906;8.376;2024-01-30T08:59:02;18.70;;;8.73;;
19111;SDS011;9688;51.906;8.376;2024-01-30T09:01:49;12.13;;;8.40;;
19111;SDS011;9688;51.906;8.376;2024-01-30T09:04:37;16.20;;;8.57;;
19111;SDS011;9688;51.906;8.376;2024-01-30T09:07:23;15.57;;;8.47;;
19111;SDS011;9688;51.906;8.376;2024-01-30T09:10:09;12.77;;;8.13;;
19111;SDS011;9688;51.906;8.376;2024-01-30T09:12:55;12.43;;;7.50;;
19111;SDS011;9688;51.906;8.376;2024-01-30T09:15:40;11.43;;;7.30;;
19111;SDS011;9688;51.906;8.376;2024-01-30T09:18:28;12.80;;;7.93;;
19111;SDS011;9688;51.906;8.376;2024-01-30T09:21:17;16.27;;;7.20;;
19111;SDS011;9688;51.906;8.376;2024-01-30T09:24:03;13.87;;;7.93;;
19111;SDS011;9688;51.906;8.376;2024-01-30T09:26:49;14.20;;;8.17;;
19111;SDS011;9688;51.906;8.376;2024-01-30T09:29:34;9.03;;;7.13;;
19111;SDS011;9688;51.906;8.376;2024-01-30T09:32:21;12.50;;;8.10;;
19111;SDS011;9688;51.906;8.376;2024-01-30T09:35:10;11.27;;;7.73;;
19111;SDS011;9688;51.906;8.376;2024-01-30T09:37:55;15.27;;;7.73;;
19111;SDS011;9688;51.906;8.376;2024-01-30T09:40:41;12.27;;;7.57;;
19111;SDS011;9688;51.906;8.376;2024-01-30T09:43:27;11.70;;;7.60;;
19111;SDS011;9688;51.906;8.376;2024-01-30T09:46:18;11.43;;;7.43;;
19111;SDS011;9688;51.906;8.376;2024-01-30T09:49:06;14.57;;;8.30;;
19111;SDS011;9688;51.906;8.376;2024-01-30T09:51:55;10.87;;;7.47;;
19111;SDS011;9688;51.906;8.376;2024-01-30T09:54:41;14.00;;;7.53;;
19111;SDS011;9688;51.906;8.376;2024-01-30T09:57:27;11.03;;;7.53;;
19111;SDS011;9688;51.906;8.376;2024-01-30T10:00:12;12.43;;;7.30;;
19111;SDS011;9688;51.906;8.376;2024-01-30T10:03:01;14.47;;;8.17;;
19111;SDS011;9688;51.906;8.376;2024-01-30T10:05:50;11.67;;;7.70;;
19111;SDS011;9688;51.906;8.376;2024-01-30T10:08:39;15.17;;;7.80;;
19111;SDS011;9688;51.906;8.376;2024-01-30T10:11:25;15.40;;;8.83;;
19111;SDS011;9688;51.906;8.376;2024-01-30T10:14:11;10.83;;;7.63;;
19111;SDS011;9688;51.906;8.376;2024-01-30T10:16:57;10.47;;;7.60;;
19111;SDS011;9688;51.906;8.376;2024-01-30T10:19:43;11.47;;;7.43;;
19111;SDS011;9688;51.906;8.376;2024-01-30T10:22:29;13.97;;;7.73;;
19111;SDS011;9688;51.906;8.376;2024-01-30T10:25:17;13.13;;;7.97;;
19111;SDS011;9688;51.906;8.376;2024-01-30T10:32:22;12.30;;;7.70;;
19111;SDS011;9688;51.906;8.376;2024-01-30T10:35:07;9.77;;;7.27;;
19111;SDS011;9688;51.906;8.376;2024-01-30T10:37:54;12.80;;;7.60;;
19111;SDS011;9688;51.906;8.376;2024-01-30T10:40:43;9.13;;;6.83;;
19111;SDS011;9688;51.906;8.376;2024-01-30T10:43:30;12.53;;;7.13;;
19111;SDS011;9688;51.906;8.376;2024-01-30T10:46:18;10.13;;;7.07;;
19111;SDS011;9688;51.906;8.376;2024-01-30T10:49:05;14.03;;;6.97;;
19111;SDS011;9688;51.906;8.376;2024-01-30T10:51:51;14.20;;;7.27;;
19111;SDS011;9688;51.906;8.376;2024-01-30T10:54:37;13.47;;;7.00;;
19111;SDS011;9688;51.906;8.376;2024-01-30T10:57:27;8.80;;;6.57;;
19111;SDS011;9688;51.906;8.376;2024-01-30T11:00:14;12.87;;;7.03;;
19111;SDS011;9688;51.906;8.376;2024-01-30T11:03:00;10.60;;;6.37;;
19111;SDS011;9688;51.906;8.376;2024-01-30T11:05:48;10.90;;;6.50;;
19111;SDS011;9688;51.906;8.376;2024-01-30T11:08:35;11.57;;;6.77;;
19111;SDS011;9688;51.906;8.376;2024-01-30T11:11:20;11.30;;;6.60;;
19111;SDS011;9688;51.906;8.376;2024-01-30T11:14:08;11.43;;;6.70;;
19111;SDS011;9688;51.906;8.376;2024-01-30T11:16:56;12.53;;;6.53;;
19111;SDS011;9688;51.906;8.376;2024-01-30T11:19:42;10.23;;;6.53;;
19111;SDS011;9688;51.906;8.376;2024-01-30T11:22:30;15.90;;;7.20;;
19111;SDS011;9688;51.906;8.376;2024-01-30T11:25:16;11.30;;;6.20;;
19111;SDS011;9688;51.906;8.376;2024-01-30T11:28:03;9.83;;;6.53;;
19111;SDS011;9688;51.906;8.376;2024-01-30T11:30:50;10.37;;;6.50;;
19111;SDS011;9688;51.906;8.376;2024-01-30T11:33:36;9.77;;;7.13;;
19111;SDS011;9688;51.906;8.376;2024-01-30T11:36:23;10.20;;;6.37;;
19111;SDS011;9688;51.906;8.376;2024-01-30T11:39:11;10.47;;;6.17;;
19111;SDS011;9688;51.906;8.376;2024-01-30T11:41:58;12.03;;;6.80;;
19111;SDS011;9688;51.906;8.376;2024-01-30T11:44:46;13.00;;;6.43;;
19111;SDS011;9688;51.906;8.376;2024-01-30T11:47:34;8.70;;;6.33;;
19111;SDS011;9688;51.906;8.376;2024-01-30T11:50:20;9.43;;;6.33;;
19111;SDS011;9688;51.906;8.376;2024-01-30T11:53:06;11.77;;;6.43;;
19111;SDS011;9688;51.906;8.376;2024-01-30T11:55:52;12.00;;;6.40;;
19111;SDS011;9688;51.906;8.376;2024-01-30T11:58:38;14.23;;;7.63;;
19111;SDS011;9688;51.906;8.376;2024-01-30T12:01:27;10.93;;;6.93;;
19111;SDS011;9688;51.906;8.376;2024-01-30T12:04:15;10.53;;;6.90;;
19111;SDS011;9688;51.906;8.376;2024-01-30T12:07:00;14.00;;;6.37;;
19111;SDS011;9688;51.906;8.376;2024-01-30T12:09:52;12.17;;;7.47;;
19111;SDS011;9688;51.906;8.376;2024-01-30T12:12:38;10.03;;;6.77;;
19111;SDS011;9688;51.906;8.376;2024-01-30T12:15:26;14.37;;;7.10;;
19111;SDS011;9688;51.906;8.376;2024-01-30T12:18:12;9.53;;;7.03;;
19111;SDS011;9688;51.906;8.376;2024-01-30T12:20:59;22.47;;;12.00;;
19111;SDS011;9688;51.906;8.376;2024-01-30T12:23:45;10.43;;;6.73;;
19111;SDS011;9688;51.906;8.376;2024-01-30T12:26:31;11.80;;;7.40;;
19111;SDS011;9688;51.906;8.376;2024-01-30T12:29:17;13.63;;;7.93;;
19111;SDS011;9688;51.906;8.376;2024-01-30T12:32:03;10.63;;;6.43;;
19111;SDS011;9688;51.906;8.376;2024-01-30T12:34:54;9.57;;;6.53;;
19111;SDS011;9688;51.906;8.376;2024-01-30T12:37:42;10.33;;;6.17;;
19111;SDS011;9688;51.906;8.376;2024-01-30T12:40:29;9.30;;;6.13;;
19111;SDS011;9688;51.906;8.376;2024-01-30T12:43:14;11.53;;;5.57;;
19111;SDS011;9688;51.906;8.376;2024-01-30T12:46:00;10.37;;;6.63;;
19111;SDS011;9688;51.906;8.376;2024-01-30T12:48:46;8.43;;;6.13;;
19111;SDS011;9688;51.906;8.376;2024-01-30T12:51:33;8.70;;;5.67;;
19111;SDS011;9688;51.906;8.376;2024-01-30T12:54:22;12.33;;;6.50;;
19111;SDS011;9688;51.906;8.376;2024-01-30T12:57:07;11.60;;;6.07;;
19111;SDS011;9688;51.906;8.376;2024-01-30T12:59:53;11.73;;;6.27;;
19111;SDS011;9688;51.906;8.376;2024-01-30T13:02:39;10.57;;;6.10;;
19111;SDS011;9688;51.906;8.376;2024-01-30T13:05:26;9.90;;;6.60;;
19111;SDS011;9688;51.906;8.376;2024-01-30T13:08:11;8.43;;;5.63;;
19111;SDS011;9688;51.906;8.376;2024-01-30T13:10:58;11.50;;;6.07;;
19111;SDS011;9688;51.906;8.376;2024-01-30T13:13:44;11.60;;;5.97;;
19111;SDS011;9688;51.906;8.376;2024-01-30T13:16:29;8.97;;;6.40;;
19111;SDS011;9688;51.906;8.376;2024-01-30T13:19:14;10.70;;;6.30;;
19111;SDS011;9688;51.906;8.376;2024-01-30T13:22:00;8.20;;;5.63;;
19111;SDS011;9688;51.906;8.376;2024-01-30T13:24:45;8.77;;;6.50;;
19111;SDS011;9688;51.906;8.376;2024-01-30T13:27:32;10.43;;;6.27;;
19111;SDS011;9688;51.906;8.376;2024-01-30T13:30:18;13.10;;;6.27;;
19111;SDS011;9688;51.906;8.376;2024-01-30T13:33:03;8.37;;;5.70;;
19111;SDS011;9688;51.906;8.376;2024-01-30T13:35:49;11.03;;;6.10;;
19111;SDS011;9688;51.906;8.376;2024-01-30T13:38:35;10.37;;;5.70;;
19111;SDS011;9688;51.906;8.376;2024-01-30T13:41:21;10.37;;;6.43;;
19111;SDS011;9688;51.906;8.376;2024-01-30T13:44:08;17.80;;;7.33;;
19111;SDS011;9688;51.906;8.376;2024-01-30T13:46:54;11.40;;;6.30;;
19111;SDS011;9688;51.906;8.376;2024-01-30T13:49:40;12.10;;;6.00;;
19111;SDS011;9688;51.906;8.376;2024-01-30T13:52:26;17.03;;;6.43;;
19111;SDS011;9688;51.906;8.376;2024-01-30T13:55:12;12.63;;;6.97;;
19111;SDS011;9688;51.906;8.376;2024-01-30T13:57:58;14.93;;;6.70;;
19111;SDS011;9688;51.906;8.376;2024-01-30T14:00:47;13.73;;;6.53;;
19111;SDS011;9688;51.906;8.376;2024-01-30T14:03:33;12.77;;;6.80;;
19111;SDS011;9688;51.906;8.376;2024-01-30T14:06:18;13.00;;;6.93;;
19111;SDS011;9688;51.906;8.376;2024-01-30T14:09:04;12.67;;;6.23;;
19111;SDS011;9688;51.906;8.376;2024-01-30T14:11:50;18.43;;;6.70;;
19111;SDS011;9688;51.906;8.376;2024-01-30T14:14:39;13.57;;;6.67;;
19111;SDS011;9688;51.906;8.376;2024-01-30T14:17:27;14.30;;;6.73;;
19111;SDS011;9688;51.906;8.376;2024-01-30T14:20:12;14.60;;;6.80;;
19111;SDS011;9688;51.906;8.376;2024-01-30T14:22:57;16.30;;;6.70;;
19111;SDS011;9688;51.906;8.376;2024-01-30T14:25:43;14.70;;;6.40;;
19111;SDS011;9688;51.906;8.376;2024-01-30T14:28:29;13.67;;;6.87;;
19111;SDS011;9688;51.906;8.376;2024-01-30T14:31:15;17.00;;;9.17;;
19111;SDS011;9688;51.906;8.376;2024-01-30T14:34:04;13.27;;;6.37;;
19111;SDS011;9688;51.906;8.376;2024-01-30T14:36:49;10.77;;;6.70;;
19111;SDS011;9688;51.906;8.376;2024-01-30T14:39:35;10.90;;;6.00;;
19111;SDS011;9688;51.906;8.376;2024-01-30T14:42:21;12.53;;;6.80;;
19111;SDS011;9688;51.906;8.376;2024-01-30T14:45:06;14.93;;;6.37;;
19111;SDS011;9688;51.906;8.376;2024-01-30T14:47:52;15.33;;;7.47;;
19111;SDS011;9688;51.906;8.376;2024-01-30T14:50:41;15.60;;;6.90;;
19111;SDS011;9688;51.906;8.376;2024-01-30T14:53:26;10.00;;;6.40;;
19111;SDS011;9688;51.906;8.376;2024-01-30T14:56:12;13.00;;;6.67;;
19111;SDS011;9688;51.906;8.376;2024-01-30T14:58:58;16.40;;;7.17;;
19111;SDS011;9688;51.906;8.376;2024-01-30T15:01:43;10.33;;;6.57;;
19111;SDS011;9688;51.906;8.376;2024-01-30T15:04:29;13.00;;;6.33;;
19111;SDS011;9688;51.906;8.376;2024-01-30T15:07:16;12.50;;;6.53;;
19111;SDS011;9688;51.906;8.376;2024-01-30T15:10:02;11.80;;;6.70;;
19111;SDS011;9688;51.906;8.376;2024-01-30T15:12:48;10.00;;;6.20;;
19111;SDS011;9688;51.906;8.376;2024-01-30T15:15:33;12.73;;;6.43;;
19111;SDS011;9688;51.906;8.376;2024-01-30T15:18:19;12.93;;;6.97;;
19111;SDS011;9688;51.906;8.376;2024-01-30T15:21:05;13.83;;;8.57;;
19111;SDS011;9688;51.906;8.376;2024-01-30T15:23:54;12.20;;;6.93;;
19111;SDS011;9688;51.906;8.376;2024-01-30T15:26:41;12.93;;;7.60;;
19111;SDS011;9688;51.906;8.376;2024-01-30T15:29:29;13.77;;;7.00;;
19111;SDS011;9688;51.906;8.376;2024-01-30T15:32:15;15.43;;;7.47;;
19111;SDS011;9688;51.906;8.376;2024-01-30T15:35:00;11.90;;;7.17;;
19111;SDS011;9688;51.906;8.376;2024-01-30T15:37:48;12.47;;;7.47;;
19111;SDS011;9688;51.906;8.376;2024-01-30T15:40:36;11.07;;;6.67;;
19111;SDS011;9688;51.906;8.376;2024-01-30T15:43:21;15.70;;;7.57;;
19111;SDS011;9688;51.906;8.376;2024-01-30T15:46:07;14.93;;;7.83;;
19111;SDS011;9688;51.906;8.376;2024-01-30T15:48:53;14.57;;;8.00;;
19111;SDS011;9688;51.906;8.376;2024-01-30T15:51:39;15.40;;;8.10;;
19111;SDS011;9688;51.906;8.376;2024-01-30T15:54:25;15.10;;;7.93;;
19111;SDS011;9688;51.906;8.376;2024-01-30T15:57:11;10.77;;;7.07;;
19111;SDS011;9688;51.906;8.376;2024-01-30T15:59:58;10.77;;;7.00;;
19111;SDS011;9688;51.906;8.376;2024-01-30T16:02:43;9.33;;;7.00;;
19111;SDS011;9688;51.906;8.376;2024-01-30T16:05:29;13.40;;;7.03;;
19111;SDS011;9688;51.906;8.376;2024-01-30T16:08:14;13.23;;;7.23;;
19111;SDS011;9688;51.906;8.376;2024-01-30T16:11:00;16.73;;;7.90;;
19111;SDS011;9688;51.906;8.376;2024-01-30T16:13:47;13.57;;;7.97;;
19111;SDS011;9688;51.906;8.376;2024-01-30T16:16:35;13.03;;;6.93;;
19111;SDS011;9688;51.906;8.376;2024-01-30T16:19:22;16.60;;;7.30;;
19111;SDS011;9688;51.906;8.376;2024-01-30T16:22:08;15.77;;;6.97;;
19111;SDS011;9688;51.906;8.376;2024-01-30T16:24:57;11.33;;;6.80;;
19111;SDS011;9688;51.906;8.376;2024-01-30T16:27:43;14.57;;;6.50;;
19111;SDS011;9688;51.906;8.376;2024-01-30T16:30:30;13.47;;;6.93;;
19111;SDS011;9688;51.906;8.376;2024-01-30T16:33:15;12.10;;;7.13;;
19111;SDS011;9688;51.906;8.376;2024-01-30T16:36:01;9.60;;;6.43;;
19111;SDS011;9688;51.906;8.376;2024-01-30T16:38:48;10.83;;;6.60;;
19111;SDS011;9688;51.906;8.376;2024-01-30T16:41:33;13.43;;;7.50;;
19111;SDS011;9688;51.906;8.376;2024-01-30T16:44:18;13.07;;;6.97;;
19111;SDS011;9688;51.906;8.376;2024-01-30T16:47:05;12.23;;;7.27;;
19111;SDS011;9688;51.906;8.376;2024-01-30T16:49:51;13.00;;;7.23;;
19111;SDS011;9688;51.906;8.376;2024-01-30T16:52:37;11.83;;;6.73;;